sensor_id;sensor_type;location;lat;lon;timestamp;P1;durP1;ratioP1;P2;durP2;ratioP2
5157;SDS011;2598;52.364;9.772;2022-10-10T06:16:10;8.53;;;2.10;;
5157;SDS011;2598;52.364;9.772;2022-10-10T06:18:36;9.40;;;2.20;;
5157;SDS011;2598;52.364;9.772;2022-10-10T06:21:03;6.70;;;2.10;;
5157;SDS011;2598;52.364;9.772;2022-10-10T06:23:29;9.40;;;2.50;;
5157;SDS011;2598;52.364;9.772;2022-10-10T06:25:55;9.07;;;2.60;;
5157;SDS011;2598;52.364;9.772;2022-10-10T06:28:21;10.63;;;2.33;;
5157;SDS011;2598;52.364;9.772;2022-10-10T06:30:47;7.30;;;2.10;;
5157;SDS011;2598;52.364;9.772;2022-10-10T06:33:14;11.60;;;2.97;;
5157;SDS011;2598;52.364;9.772;2022-10-10T06:35:43;11.20;;;2.47;;
5157;SDS011;2598;52.364;9.772;2022-10-10T06:38:09;10.60;;;2.77;;
5157;SDS011;2598;52.364;9.772;2022-10-10T06:40:36;12.87;;;2.37;;
5157;SDS011;2598;52.364;9.772;2022-10-10T06:43:03;9.03;;;2.10;;
5157;SDS011;2598;52.364;9.772;2022-10-10T06:45:34;9.00;;;2.30;;
5157;SDS011;2598;52.364;9.772;2022-10-10T06:48:01;8.17;;;2.57;;
5157;SDS011;2598;52.364;9.772;2022-10-10T06:50:27;6.77;;;2.00;;
5157;SDS011;2598;52.364;9.772;2022-10-10T06:52:53;7.63;;;2.60;;
5157;SDS011;2598;52.364;9.772;2022-10-10T06:55:19;10.90;;;2.50;;
5157;SDS011;2598;52.364;9.772;2022-10-10T06:57:45;12.70;;;2.93;;
5157;SDS011;2598;52.364;9.772;2022-10-10T07:00:11;10.50;;;2.40;;
5157;SDS011;2598;52.364;9.772;2022-10-10T07:02:37;8.50;;;2.03;;
5157;SDS011;2598;52.364;9.772;2022-10-10T07:05:14;11.20;;;2.17;;
5157;SDS011;2598;52.364;9.772;2022-10-10T07:07:41;8.57;;;2.17;;
5157;SDS011;2598;52.364;9.772;2022-10-10T07:10:07;7.23;;;1.87;;
5157;SDS011;2598;52.364;9.772;2022-10-10T07:12:34;7.97;;;2.03;;
5157;SDS011;2598;52.364;9.772;2022-10-10T07:15:01;10.93;;;2.33;;
5157;SDS011;2598;52.364;9.772;2022-10-10T07:17:27;7.37;;;2.17;;
5157;SDS011;2598;52.364;9.772;2022-10-10T07:19:53;12.17;;;2.73;;
5157;SDS011;2598;52.364;9.772;2022-10-10T07:22:19;7.70;;;2.03;;
5157;SDS011;2598;52.364;9.772;2022-10-10T07:24:45;9.83;;;2.77;;
5157;SDS011;2598;52.364;9.772;2022-10-10T07:27:11;7.13;;;1.70;;
5157;SDS011;2598;52.364;9.772;2022-10-10T07:29:37;7.17;;;2.03;;
5157;SDS011;2598;52.364;9.772;2022-10-10T07:32:03;7.27;;;1.87;;
5157;SDS011;2598;52.364;9.772;2022-10-10T07:34:29;10.03;;;2.20;;
5157;SDS011;2598;52.364;9.772;2022-10-10T07:36:55;7.60;;;2.00;;
5157;SDS011;2598;52.364;9.772;2022-10-10T07:39:22;8.00;;;2.03;;
5157;SDS011;2598;52.364;9.772;2022-10-10T07:41:48;6.80;;;1.90;;
5157;SDS011;2598;52.364;9.772;2022-10-10T07:44:16;8.13;;;1.77;;
5157;SDS011;2598;52.364;9.772;2022-10-10T07:46:42;7.97;;;2.40;;
5157;SDS011;2598;52.364;9.772;2022-10-10T07:49:08;6.40;;;1.80;;
5157;SDS011;2598;52.364;9.772;2022-10-10T07:51:34;6.80;;;2.00;;
5157;SDS011;2598;52.364;9.772;2022-10-10T07:54:00;10.17;;;2.40;;
5157;SDS011;2598;52.364;9.772;2022-10-10T07:56:26;9.80;;;2.27;;
5157;SDS011;2598;52.364;9.772;2022-10-10T07:58:52;7.13;;;2.40;;
5157;SDS011;2598;52.364;9.772;2022-10-10T08:01:18;7.43;;;2.33;;
5157;SDS011;2598;52.364;9.772;2022-10-10T08:03:45;8.63;;;2.33;;
5157;SDS011;2598;52.364;9.772;2022-10-10T08:06:12;8.03;;;2.17;;
5157;SDS011;2598;52.364;9.772;2022-10-10T08:08:38;10.10;;;2.63;;
5157;SDS011;2598;52.364;9.772;2022-10-10T08:11:05;7.57;;;2.13;;
5157;SDS011;2598;52.364;9.772;2022-10-10T08:13:31;7.00;;;1.83;;
5157;SDS011;2598;52.364;9.772;2022-10-10T08:15:57;11.10;;;2.13;;
5157;SDS011;2598;52.364;9.772;2022-10-10T08:18:23;7.93;;;2.30;;
5157;SDS011;2598;52.364;9.772;2022-10-10T08:23:25;9.43;;;2.37;;
5157;SDS011;2598;52.364;9.772;2022-10-10T08:25:51;6.77;;;2.07;;
5157;SDS011;2598;52.364;9.772;2022-10-10T08:28:17;11.50;;;2.10;;
5157;SDS011;2598;52.364;9.772;2022-10-10T08:30:43;7.60;;;2.43;;
5157;SDS011;2598;52.364;9.772;2022-10-10T08:33:09;6.67;;;1.93;;
5157;SDS011;2598;52.364;9.772;2022-10-10T08:35:36;7.80;;;1.93;;
5157;SDS011;2598;52.364;9.772;2022-10-10T08:38:02;8.57;;;2.27;;
5157;SDS011;2598;52.364;9.772;2022-10-10T08:40:29;11.20;;;2.73;;
5157;SDS011;2598;52.364;9.772;2022-10-10T08:42:55;9.23;;;2.40;;
5157;SDS011;2598;52.364;9.772;2022-10-10T08:45:23;11.70;;;3.07;;
5157;SDS011;2598;52.364;9.772;2022-10-10T08:47:53;9.10;;;2.20;;
5157;SDS011;2598;52.364;9.772;2022-10-10T08:50:20;10.10;;;2.10;;
5157;SDS011;2598;52.364;9.772;2022-10-10T08:55:18;15.90;;;3.10;;
5157;SDS011;2598;52.364;9.772;2022-10-10T08:57:50;9.77;;;2.50;;
5157;SDS011;2598;52.364;9.772;2022-10-10T09:00:23;13.43;;;2.47;;
5157;SDS011;2598;52.364;9.772;2022-10-10T09:02:53;7.53;;;2.30;;
5157;SDS011;2598;52.364;9.772;2022-10-10T09:05:29;6.70;;;2.30;;
5157;SDS011;2598;52.364;9.772;2022-10-10T09:08:04;7.77;;;2.50;;
5157;SDS011;2598;52.364;9.772;2022-10-10T09:10:53;9.57;;;2.20;;
5157;SDS011;2598;52.364;9.772;2022-10-10T09:13:32;13.50;;;2.27;;
5157;SDS011;2598;52.364;9.772;2022-10-10T09:16:01;9.43;;;2.10;;
5157;SDS011;2598;52.364;9.772;2022-10-10T09:18:39;10.10;;;2.17;;
5157;SDS011;2598;52.364;9.772;2022-10-10T09:21:10;10.87;;;2.23;;
5157;SDS011;2598;52.364;9.772;2022-10-10T09:23:41;8.80;;;2.30;;
5157;SDS011;2598;52.364;9.772;2022-10-10T09:26:11;8.27;;;2.30;;
5157;SDS011;2598;52.364;9.772;2022-10-10T09:28:39;9.30;;;2.53;;
5157;SDS011;2598;52.364;9.772;2022-10-10T09:31:09;7.50;;;2.27;;
5157;SDS011;2598;52.364;9.772;2022-10-10T09:36:09;8.10;;;2.40;;
5157;SDS011;2598;52.364;9.772;2022-10-10T09:38:39;9.93;;;2.43;;
5157;SDS011;2598;52.364;9.772;2022-10-10T09:41:22;6.63;;;2.13;;
5157;SDS011;2598;52.364;9.772;2022-10-10T09:44:03;9.23;;;2.27;;
5157;SDS011;2598;52.364;9.772;2022-10-10T09:46:29;11.37;;;2.30;;
5157;SDS011;2598;52.364;9.772;2022-10-10T09:48:55;7.90;;;2.43;;
5157;SDS011;2598;52.364;9.772;2022-10-10T09:51:22;8.80;;;2.30;;
5157;SDS011;2598;52.364;9.772;2022-10-10T09:53:48;13.93;;;2.40;;
5157;SDS011;2598;52.364;9.772;2022-10-10T09:56:22;6.97;;;2.00;;
5157;SDS011;2598;52.364;9.772;2022-10-10T09:58:49;7.53;;;2.33;;
5157;SDS011;2598;52.364;9.772;2022-10-10T10:01:20;8.90;;;2.43;;
5157;SDS011;2598;52.364;9.772;2022-10-10T10:06:31;8.57;;;2.70;;
5157;SDS011;2598;52.364;9.772;2022-10-10T10:09:00;10.03;;;2.50;;
5157;SDS011;2598;52.364;9.772;2022-10-10T10:11:31;9.50;;;2.27;;
5157;SDS011;2598;52.364;9.772;2022-10-10T10:13:58;7.83;;;2.53;;
5157;SDS011;2598;52.364;9.772;2022-10-10T10:16:30;7.60;;;2.30;;
5157;SDS011;2598;52.364;9.772;2022-10-10T10:18:56;16.60;;;2.70;;
5157;SDS011;2598;52.364;9.772;2022-10-10T10:21:22;14.40;;;2.60;;
5157;SDS011;2598;52.364;9.772;2022-10-10T10:26:16;6.53;;;2.27;;
5157;SDS011;2598;52.364;9.772;2022-10-10T10:28:44;9.83;;;2.33;;
5157;SDS011;2598;52.364;9.772;2022-10-10T10:31:13;10.03;;;2.30;;
5157;SDS011;2598;52.364;9.772;2022-10-10T10:33:49;8.67;;;2.53;;
5157;SDS011;2598;52.364;9.772;2022-10-10T10:49:15;9.90;;;2.87;;
5157;SDS011;2598;52.364;9.772;2022-10-10T10:56:44;11.37;;;2.40;;
5157;SDS011;2598;52.364;9.772;2022-10-10T11:01:49;7.47;;;2.23;;
5157;SDS011;2598;52.364;9.772;2022-10-10T11:04:34;7.10;;;2.17;;
5157;SDS011;2598;52.364;9.772;2022-10-10T11:09:38;7.30;;;2.27;;
5157;SDS011;2598;52.364;9.772;2022-10-10T11:17:38;7.87;;;2.47;;
5157;SDS011;2598;52.364;9.772;2022-10-10T11:20:26;8.00;;;2.77;;
5157;SDS011;2598;52.364;9.772;2022-10-10T11:25:23;8.83;;;2.30;;
5157;SDS011;2598;52.364;9.772;2022-10-10T11:27:56;8.10;;;2.13;;
5157;SDS011;2598;52.364;9.772;2022-10-10T11:30:25;8.73;;;2.30;;
5157;SDS011;2598;52.364;9.772;2022-10-10T11:38:04;10.57;;;2.53;;
5157;SDS011;2598;52.364;9.772;2022-10-10T11:40:38;9.63;;;2.50;;
5157;SDS011;2598;52.364;9.772;2022-10-10T11:43:07;8.53;;;2.20;;
5157;SDS011;2598;52.364;9.772;2022-10-10T11:45:42;7.70;;;2.50;;
5157;SDS011;2598;52.364;9.772;2022-10-10T11:48:15;8.63;;;2.00;;
5157;SDS011;2598;52.364;9.772;2022-10-10T11:50:42;7.60;;;2.13;;
5157;SDS011;2598;52.364;9.772;2022-10-10T11:58:34;11.50;;;2.50;;
5157;SDS011;2598;52.364;9.772;2022-10-10T12:01:22;11.87;;;2.20;;
5157;SDS011;2598;52.364;9.772;2022-10-10T12:03:49;7.40;;;2.13;;
5157;SDS011;2598;52.364;9.772;2022-10-10T12:06:58;7.17;;;2.13;;
5157;SDS011;2598;52.364;9.772;2022-10-10T12:09:09;9.13;;;2.23;;
5157;SDS011;2598;52.364;9.772;2022-10-10T12:14:23;8.40;;;2.37;;
5157;SDS011;2598;52.364;9.772;2022-10-10T12:16:50;10.13;;;2.70;;
5157;SDS011;2598;52.364;9.772;2022-10-10T12:19:17;9.57;;;2.43;;
5157;SDS011;2598;52.364;9.772;2022-10-10T12:21:57;7.80;;;2.33;;
5157;SDS011;2598;52.364;9.772;2022-10-10T12:24:31;8.70;;;2.60;;
5157;SDS011;2598;52.364;9.772;2022-10-10T12:29:43;10.53;;;2.37;;
5157;SDS011;2598;52.364;9.772;2022-10-10T12:37:27;9.30;;;2.47;;
5157;SDS011;2598;52.364;9.772;2022-10-10T12:48:03;9.90;;;2.70;;
5157;SDS011;2598;52.364;9.772;2022-10-10T12:50:33;7.90;;;2.20;;
5157;SDS011;2598;52.364;9.772;2022-10-10T12:53:00;9.70;;;2.60;;
5157;SDS011;2598;52.364;9.772;2022-10-10T12:55:28;7.83;;;2.73;;
5157;SDS011;2598;52.364;9.772;2022-10-10T12:57:56;7.47;;;2.17;;
5157;SDS011;2598;52.364;9.772;2022-10-10T13:00:24;8.00;;;2.20;;
5157;SDS011;2598;52.364;9.772;2022-10-10T13:02:52;9.80;;;2.23;;
5157;SDS011;2598;52.364;9.772;2022-10-10T13:05:20;13.30;;;2.93;;
5157;SDS011;2598;52.364;9.772;2022-10-10T13:07:47;17.27;;;2.67;;
5157;SDS011;2598;52.364;9.772;2022-10-10T13:10:23;8.53;;;2.30;;
5157;SDS011;2598;52.364;9.772;2022-10-10T13:13:00;11.50;;;3.03;;
5157;SDS011;2598;52.364;9.772;2022-10-10T13:15:27;8.47;;;2.60;;
5157;SDS011;2598;52.364;9.772;2022-10-10T13:17:53;8.57;;;2.30;;
5157;SDS011;2598;52.364;9.772;2022-10-10T13:22:51;10.23;;;2.30;;
5157;SDS011;2598;52.364;9.772;2022-10-10T13:25:18;6.80;;;2.10;;
5157;SDS011;2598;52.364;9.772;2022-10-10T13:27:44;9.60;;;2.80;;
5157;SDS011;2598;52.364;9.772;2022-10-10T13:30:16;11.53;;;2.40;;
5157;SDS011;2598;52.364;9.772;2022-10-10T13:32:43;12.07;;;2.60;;
5157;SDS011;2598;52.364;9.772;2022-10-10T13:35:13;11.17;;;2.43;;
5157;SDS011;2598;52.364;9.772;2022-10-10T13:37:40;15.03;;;2.53;;
5157;SDS011;2598;52.364;9.772;2022-10-10T13:40:17;8.23;;;2.70;;
5157;SDS011;2598;52.364;9.772;2022-10-10T13:42:43;12.07;;;2.20;;
5157;SDS011;2598;52.364;9.772;2022-10-10T13:47:51;10.03;;;2.30;;
5157;SDS011;2598;52.364;9.772;2022-10-10T13:52:50;9.80;;;2.13;;
5157;SDS011;2598;52.364;9.772;2022-10-10T13:55:39;9.83;;;2.40;;
5157;SDS011;2598;52.364;9.772;2022-10-10T13:58:06;14.23;;;2.40;;
5157;SDS011;2598;52.364;9.772;2022-10-10T14:00:33;7.50;;;1.97;;
5157;SDS011;2598;52.364;9.772;2022-10-10T14:03:00;8.83;;;2.23;;
5157;SDS011;2598;52.364;9.772;2022-10-10T14:05:27;8.13;;;1.80;;
5157;SDS011;2598;52.364;9.772;2022-10-10T14:07:54;6.90;;;1.93;;
5157;SDS011;2598;52.364;9.772;2022-10-10T14:10:22;9.30;;;2.00;;
5157;SDS011;2598;52.364;9.772;2022-10-10T14:12:52;6.10;;;1.73;;
5157;SDS011;2598;52.364;9.772;2022-10-10T14:18:01;6.60;;;1.83;;
5157;SDS011;2598;52.364;9.772;2022-10-10T14:20:27;9.33;;;2.40;;
5157;SDS011;2598;52.364;9.772;2022-10-10T14:22:53;11.83;;;2.50;;
5157;SDS011;2598;52.364;9.772;2022-10-10T14:25:19;6.80;;;1.70;;
5157;SDS011;2598;52.364;9.772;2022-10-10T14:27:45;6.23;;;1.97;;
5157;SDS011;2598;52.364;9.772;2022-10-10T14:30:14;7.00;;;1.80;;
5157;SDS011;2598;52.364;9.772;2022-10-10T14:32:40;7.80;;;1.70;;
5157;SDS011;2598;52.364;9.772;2022-10-10T14:35:07;7.47;;;1.97;;
5157;SDS011;2598;52.364;9.772;2022-10-10T14:37:34;10.53;;;2.80;;
5157;SDS011;2598;52.364;9.772;2022-10-10T14:40:02;8.50;;;1.73;;
5157;SDS011;2598;52.364;9.772;2022-10-10T14:42:28;9.27;;;2.80;;
5157;SDS011;2598;52.364;9.772;2022-10-10T14:44:54;7.10;;;1.90;;
5157;SDS011;2598;52.364;9.772;2022-10-10T14:47:22;8.87;;;2.20;;
5157;SDS011;2598;52.364;9.772;2022-10-10T14:49:48;9.67;;;1.73;;
5157;SDS011;2598;52.364;9.772;2022-10-10T14:52:15;7.00;;;1.93;;
5157;SDS011;2598;52.364;9.772;2022-10-10T14:54:41;11.87;;;1.67;;
5157;SDS011;2598;52.364;9.772;2022-10-10T14:57:08;7.10;;;1.80;;
5157;SDS011;2598;52.364;9.772;2022-10-10T14:59:35;7.40;;;2.40;;
5157;SDS011;2598;52.364;9.772;2022-10-10T15:02:01;9.53;;;2.20;;
5157;SDS011;2598;52.364;9.772;2022-10-10T15:04:27;10.73;;;2.17;;
5157;SDS011;2598;52.364;9.772;2022-10-10T15:06:53;9.47;;;2.30;;
5157;SDS011;2598;52.364;9.772;2022-10-10T15:09:19;9.83;;;1.90;;
5157;SDS011;2598;52.364;9.772;2022-10-10T15:11:45;10.10;;;2.47;;
5157;SDS011;2598;52.364;9.772;2022-10-10T15:14:11;7.17;;;2.20;;
5157;SDS011;2598;52.364;9.772;2022-10-10T15:16:37;12.10;;;2.30;;
5157;SDS011;2598;52.364;9.772;2022-10-10T15:19:03;7.70;;;2.43;;
5157;SDS011;2598;52.364;9.772;2022-10-10T15:21:29;9.37;;;1.83;;
5157;SDS011;2598;52.364;9.772;2022-10-10T15:23:55;8.67;;;2.47;;
5157;SDS011;2598;52.364;9.772;2022-10-10T15:26:22;11.80;;;2.30;;
5157;SDS011;2598;52.364;9.772;2022-10-10T15:28:48;12.83;;;2.50;;
5157;SDS011;2598;52.364;9.772;2022-10-10T15:31:14;9.13;;;2.00;;
5157;SDS011;2598;52.364;9.772;2022-10-10T15:33:40;10.93;;;2.30;;
5157;SDS011;2598;52.364;9.772;2022-10-10T15:36:06;12.03;;;2.30;;
5157;SDS011;2598;52.364;9.772;2022-10-10T15:38:33;8.23;;;2.10;;
5157;SDS011;2598;52.364;9.772;2022-10-10T15:41:00;9.13;;;2.60;;
5157;SDS011;2598;52.364;9.772;2022-10-10T15:43:27;9.50;;;2.50;;
5157;SDS011;2598;52.364;9.772;2022-10-10T15:45:53;8.20;;;2.03;;
5157;SDS011;2598;52.364;9.772;2022-10-10T15:48:23;12.20;;;2.57;;
5157;SDS011;2598;52.364;9.772;2022-10-10T15:50:49;7.47;;;2.10;;
5157;SDS011;2598;52.364;9.772;2022-10-10T15:53:15;9.97;;;2.80;;
5157;SDS011;2598;52.364;9.772;2022-10-10T15:55:45;14.43;;;3.90;;
5157;SDS011;2598;52.364;9.772;2022-10-10T15:58:11;8.07;;;3.00;;
5157;SDS011;2598;52.364;9.772;2022-10-10T16:00:38;12.87;;;2.90;;
5157;SDS011;2598;52.364;9.772;2022-10-10T16:03:04;9.37;;;2.83;;
5157;SDS011;2598;52.364;9.772;2022-10-10T16:05:30;12.03;;;2.33;;
5157;SDS011;2598;52.364;9.772;2022-10-10T16:07:57;11.80;;;2.37;;
5157;SDS011;2598;52.364;9.772;2022-10-10T16:10:23;12.63;;;2.33;;
5157;SDS011;2598;52.364;9.772;2022-10-10T16:12:49;9.13;;;2.03;;
5157;SDS011;2598;52.364;9.772;2022-10-10T16:15:15;12.93;;;2.80;;
5157;SDS011;2598;52.364;9.772;2022-10-10T16:17:41;9.77;;;2.53;;
5157;SDS011;2598;52.364;9.772;2022-10-10T16:20:07;10.57;;;2.90;;
5157;SDS011;2598;52.364;9.772;2022-10-10T16:22:34;8.07;;;2.93;;
5157;SDS011;2598;52.364;9.772;2022-10-10T16:25:00;10.50;;;2.57;;
5157;SDS011;2598;52.364;9.772;2022-10-10T16:27:26;9.73;;;2.57;;
5157;SDS011;2598;52.364;9.772;2022-10-10T16:29:52;10.53;;;2.10;;
5157;SDS011;2598;52.364;9.772;2022-10-10T16:32:18;10.20;;;2.30;;
5157;SDS011;2598;52.364;9.772;2022-10-10T16:34:44;15.20;;;2.70;;
5157;SDS011;2598;52.364;9.772;2022-10-10T16:37:10;9.60;;;2.40;;
5157;SDS011;2598;52.364;9.772;2022-10-10T16:39:36;8.70;;;2.47;;
5157;SDS011;2598;52.364;9.772;2022-10-10T16:42:02;9.17;;;2.20;;
5157;SDS011;2598;52.364;9.772;2022-10-10T16:44:28;8.17;;;2.27;;
5157;SDS011;2598;52.364;9.772;2022-10-10T16:46:54;8.20;;;2.37;;
5157;SDS011;2598;52.364;9.772;2022-10-10T16:49:20;12.20;;;2.63;;
5157;SDS011;2598;52.364;9.772;2022-10-10T16:51:47;7.87;;;2.80;;
5157;SDS011;2598;52.364;9.772;2022-10-10T16:54:13;11.37;;;2.80;;
5157;SDS011;2598;52.364;9.772;2022-10-10T16:56:39;12.93;;;2.50;;
5157;SDS011;2598;52.364;9.772;2022-10-10T16:59:05;14.40;;;2.43;;
5157;SDS011;2598;52.364;9.772;2022-10-10T17:01:32;15.10;;;2.40;;
5157;SDS011;2598;52.364;9.772;2022-10-10T17:03:59;13.93;;;2.17;;
5157;SDS011;2598;52.364;9.772;2022-10-10T17:06:26;10.27;;;2.10;;
5157;SDS011;2598;52.364;9.772;2022-10-10T17:08:52;9.97;;;2.57;;
5157;SDS011;2598;52.364;9.772;2022-10-10T17:11:20;8.83;;;2.60;;
5157;SDS011;2598;52.364;9.772;2022-10-10T17:13:47;10.87;;;2.83;;
5157;SDS011;2598;52.364;9.772;2022-10-10T17:16:18;11.13;;;2.40;;
5157;SDS011;2598;52.364;9.772;2022-10-10T17:18:44;8.83;;;2.33;;
5157;SDS011;2598;52.364;9.772;2022-10-10T17:21:14;8.43;;;2.70;;
5157;SDS011;2598;52.364;9.772;2022-10-10T17:23:41;12.87;;;2.70;;
5157;SDS011;2598;52.364;9.772;2022-10-10T17:26:09;10.77;;;3.07;;
5157;SDS011;2598;52.364;9.772;2022-10-10T17:28:35;10.20;;;2.80;;
5157;SDS011;2598;52.364;9.772;2022-10-10T17:31:08;11.10;;;2.87;;
5157;SDS011;2598;52.364;9.772;2022-10-10T17:33:36;10.10;;;2.90;;
5157;SDS011;2598;52.364;9.772;2022-10-10T17:36:09;14.17;;;3.50;;
5157;SDS011;2598;52.364;9.772;2022-10-10T17:38:35;12.30;;;2.90;;
5157;SDS011;2598;52.364;9.772;2022-10-10T17:41:02;11.10;;;3.27;;
5157;SDS011;2598;52.364;9.772;2022-10-10T17:43:28;7.60;;;2.90;;
5157;SDS011;2598;52.364;9.772;2022-10-10T17:46:14;8.73;;;3.03;;
5157;SDS011;2598;52.364;9.772;2022-10-10T17:48:40;9.20;;;2.90;;
5157;SDS011;2598;52.364;9.772;2022-10-10T17:51:07;12.67;;;3.67;;
5157;SDS011;2598;52.364;9.772;2022-10-10T17:53:33;11.67;;;4.13;;
5157;SDS011;2598;52.364;9.772;2022-10-10T17:55:59;12.67;;;3.50;;
5157;SDS011;2598;52.364;9.772;2022-10-10T17:58:25;12.73;;;4.47;;
5157;SDS011;2598;52.364;9.772;2022-10-10T18:00:51;11.00;;;3.87;;
5157;SDS011;2598;52.364;9.772;2022-10-10T18:03:17;10.10;;;4.27;;
5157;SDS011;2598;52.364;9.772;2022-10-10T18:05:44;11.30;;;4.20;;
5157;SDS011;2598;52.364;9.772;2022-10-10T18:08:10;13.57;;;4.40;;
5157;SDS011;2598;52.364;9.772;2022-10-10T18:10:38;12.50;;;3.40;;
5157;SDS011;2598;52.364;9.772;2022-10-10T18:13:05;13.20;;;4.50;;
5157;SDS011;2598;52.364;9.772;2022-10-10T18:15:32;17.13;;;4.30;;
5157;SDS011;2598;52.364;9.772;2022-10-10T18:17:58;11.37;;;4.53;;
5157;SDS011;2598;52.364;9.772;2022-10-10T18:20:24;15.40;;;5.23;;
5157;SDS011;2598;52.364;9.772;2022-10-10T18:22:50;14.20;;;5.20;;
5157;SDS011;2598;52.364;9.772;2022-10-10T18:25:18;12.10;;;5.07;;
5157;SDS011;2598;52.364;9.772;2022-10-10T18:27:44;14.10;;;5.50;;
5157;SDS011;2598;52.364;9.772;2022-10-10T18:30:10;17.00;;;6.10;;
5157;SDS011;2598;52.364;9.772;2022-10-10T18:32:36;11.77;;;5.20;;
5157;SDS011;2598;52.364;9.772;2022-10-10T18:35:02;13.17;;;5.00;;
5157;SDS011;2598;52.364;9.772;2022-10-10T18:37:28;12.17;;;6.30;;
5157;SDS011;2598;52.364;9.772;2022-10-10T18:39:54;17.63;;;5.93;;
5157;SDS011;2598;52.364;9.772;2022-10-10T18:42:20;13.50;;;6.13;;
5157;SDS011;2598;52.364;9.772;2022-10-10T18:44:46;13.37;;;6.03;;
5157;SDS011;2598;52.364;9.772;2022-10-10T18:47:12;13.87;;;5.50;;
